Dell, Montana
Current Conditions -  °F | °C
As of 10:53 AM on Thursday 29 Jan 2015 (Local Time) from KDLN Reporting Station
Clear Clear  
Wind Chill: 25°   Ceiling: Unl
Heat Index: 32°   Visibility: 10mi
Dew Point: 25°   Wind: 8mph
Humidity: 75%   Direction: 210°SSW
Pressure: 30.41"   Gusts: NA
Location:  44.73°N, 112.7°W
Report Text: KDLN 291753Z AUTO 21007KT 10SM CLR 00/M04 A3041 RMK AO2 SLP326 T00001039 10000 21056 58003
Loading
Personal Weather Stations






























Interactive Weather Map New forecast layout! Learn more

10-Day Weather Forecast

Advertisements
Track Severe Weather on mobile